createdAt,value
2022-08-21T00:00:29.369Z,99200.19
2022-08-21T00:03:02.795Z,99203.69
2022-08-21T00:05:34.791Z,99197.09
2022-08-21T00:08:04.930Z,99196.72
2022-08-21T00:10:35.154Z,99193.00
2022-08-21T00:13:05.373Z,99192.59
2022-08-21T00:15:40.609Z,99189.34
2022-08-21T00:18:13.338Z,99186.41
2022-08-21T00:20:44.834Z,99188.66
2022-08-21T00:23:15.743Z,99182.44
2022-08-21T00:25:46.891Z,99177.28
2022-08-21T00:28:17.652Z,99173.22
2022-08-21T00:30:50.377Z,99170.50
2022-08-21T00:33:20.553Z,99174.03
2022-08-21T00:35:50.688Z,99176.47
2022-08-21T00:38:20.838Z,99176.34
2022-08-21T00:40:55.485Z,99167.81
2022-08-21T00:43:31.473Z,99172.38
2022-08-21T00:46:04.787Z,99164.75
2022-08-21T00:48:36.376Z,99167.56
2022-08-21T00:51:11.031Z,99156.09
2022-08-21T00:53:44.353Z,99159.16
2022-08-21T00:56:21.142Z,99165.78
2022-08-21T00:58:54.856Z,99154.66
2022-08-21T01:01:31.693Z,99154.06
2022-08-21T01:04:02.650Z,99162.13
2022-08-21T01:06:33.210Z,99152.63
2022-08-21T01:09:03.311Z,99150.38
2022-08-21T01:11:34.008Z,99152.47
2022-08-21T01:14:04.744Z,99150.22
2022-08-21T01:16:37.662Z,99152.06
2022-08-21T01:19:08.134Z,99156.03
2022-08-21T01:21:40.970Z,99146.59
2022-08-21T01:24:14.823Z,99135.72
2022-08-21T01:26:46.333Z,99145.44
2022-08-21T01:29:20.589Z,99147.97
2022-08-21T01:31:50.742Z,99143.25
2022-08-21T01:34:20.971Z,99145.34
2022-08-21T01:36:53.866Z,99144.72
2022-08-21T01:39:24.293Z,99142.47
2022-08-21T01:41:54.475Z,99142.69
2022-08-21T01:44:25.722Z,99122.97
2022-08-21T01:47:01.664Z,99136.09
2022-08-21T01:49:31.890Z,99140.66
2022-08-21T01:52:04.976Z,99140.06
2022-08-21T01:54:35.626Z,99141.09
2022-08-21T01:57:06.962Z,99140.25
2022-08-21T01:59:38.054Z,99142.75
2022-08-21T02:02:08.907Z,99134.06
2022-08-21T02:04:39.185Z,99115.78
2022-08-21T02:07:12.291Z,99139.00
2022-08-21T02:09:43.613Z,99132.81
2022-08-21T02:12:14.139Z,99141.47
2022-08-21T02:14:44.306Z,99136.94
2022-08-21T02:17:15.189Z,99141.47
2022-08-21T02:19:45.273Z,99135.06
2022-08-21T02:22:18.028Z,99142.75
2022-08-21T02:24:54.371Z,99144.81
2022-08-21T02:27:27.272Z,99143.41
2022-08-21T02:29:59.864Z,99146.09
2022-08-21T02:32:30.072Z,99146.16
2022-08-21T02:35:00.219Z,99147.19
2022-08-21T02:37:32.969Z,99147.41
2022-08-21T02:40:03.976Z,99142.88
2022-08-21T02:42:34.221Z,99142.66
2022-08-21T02:45:04.286Z,99149.09
2022-08-21T02:47:34.840Z,99145.34
2022-08-21T02:50:05.164Z,99146.81
2022-08-21T02:52:38.084Z,99136.09
2022-08-21T02:55:09.037Z,99139.81
2022-08-21T02:57:39.133Z,99137.13
2022-08-21T03:00:11.858Z,99136.94
2022-08-21T03:02:41.955Z,99130.75
2022-08-21T03:05:13.781Z,99132.41
2022-08-21T03:07:47.497Z,99136.72
2022-08-21T03:10:19.958Z,99130.16
2022-08-21T03:12:50.269Z,99127.88
2022-08-21T03:15:23.454Z,99132.88
2022-08-21T03:17:55.692Z,99128.75
2022-08-21T03:20:28.000Z,99127.88
2022-08-21T03:23:01.087Z,99137.41
2022-08-21T03:25:40.432Z,99133.28
2022-08-21T03:28:14.279Z,99133.72
2022-08-21T03:30:45.150Z,99138.88
2022-08-21T03:33:15.817Z,99134.53
2022-08-21T03:35:47.573Z,99145.91
2022-08-21T03:38:25.905Z,99148.78
2022-08-21T03:40:56.933Z,99152.50
2022-08-21T03:43:27.715Z,99164.72
2022-08-21T03:46:01.468Z,99165.75
2022-08-21T03:48:31.663Z,99164.94
2022-08-21T03:51:01.969Z,99151.56
2022-08-21T03:53:35.142Z,99173.38
2022-08-21T03:56:05.329Z,99162.63
2022-08-21T03:58:35.516Z,99167.41
2022-08-21T04:01:07.376Z,99157.47
2022-08-21T04:03:39.750Z,99159.75
2022-08-21T04:06:11.248Z,99168.44
2022-08-21T04:08:44.289Z,99164.09
2022-08-21T04:11:15.888Z,99175.88
2022-08-21T04:13:46.255Z,99172.00
2022-08-21T04:16:16.841Z,99169.53
2022-08-21T04:18:46.925Z,99169.69
2022-08-21T04:21:17.044Z,99168.28
2022-08-21T04:23:49.734Z,99173.66
2022-08-21T04:26:19.953Z,99184.97
2022-08-21T04:28:50.072Z,99179.81
2022-08-21T04:31:20.169Z,99188.47
2022-08-21T04:33:50.261Z,99190.13
2022-08-21T04:36:20.900Z,99188.47
2022-08-21T04:38:57.328Z,99186.47
2022-08-21T04:41:28.119Z,99193.03
2022-08-21T04:43:59.054Z,99192.00
2022-08-21T04:46:29.263Z,99195.56
2022-08-21T04:49:00.113Z,99201.97
2022-08-21T04:51:36.039Z,99215.38
2022-08-21T04:54:13.169Z,99216.41
2022-08-21T04:56:49.334Z,99221.97
2022-08-21T04:59:22.705Z,99219.47
2022-08-21T05:01:55.346Z,99222.75
2022-08-21T05:04:28.758Z,99220.47
2022-08-21T05:07:03.916Z,99227.28
2022-08-21T05:09:38.339Z,99224.38
2022-08-21T05:12:09.063Z,99221.47
2022-08-21T05:14:39.179Z,99230.56
2022-08-21T05:17:09.948Z,99225.63
2022-08-21T05:19:41.030Z,99238.69
2022-08-21T05:22:11.166Z,99240.16
2022-08-21T05:24:44.203Z,99249.25
2022-08-21T05:27:17.806Z,99247.19
2022-08-21T05:29:48.464Z,99247.81
2022-08-21T05:32:20.641Z,99258.34
2022-08-21T05:34:51.007Z,99251.94
2022-08-21T05:37:21.096Z,99255.25
2022-08-21T05:40:20.383Z,99264.94
2022-08-21T05:42:44.161Z,99259.94
2022-08-21T05:45:26.955Z,99268.59
2022-08-21T05:48:18.095Z,99273.16
2022-08-21T05:50:50.474Z,99270.31
2022-08-21T05:53:22.160Z,99264.50
2022-08-21T05:55:55.443Z,99265.72
2022-08-21T05:58:26.192Z,99268.59
2022-08-21T06:00:56.316Z,99269.81
2022-08-21T06:03:28.872Z,99274.78
2022-08-21T06:05:59.718Z,99270.44
2022-08-21T06:08:30.553Z,99272.72
2022-08-21T06:11:04.766Z,99270.84
2022-08-21T06:13:34.890Z,99270.22
2022-08-21T06:16:08.331Z,99275.38
2022-08-21T06:18:40.615Z,99271.00
2022-08-21T06:21:14.647Z,99266.66
2022-08-21T06:23:44.859Z,99263.94
2022-08-21T06:26:18.026Z,99260.38
2022-08-21T06:28:48.161Z,99255.81
2022-08-21T06:31:21.346Z,99259.50
2022-08-21T06:33:51.677Z,99249.97
2022-08-21T06:36:22.694Z,99250.63
2022-08-21T06:38:52.877Z,99240.69
2022-08-21T06:41:26.503Z,99242.94
2022-08-21T06:43:58.192Z,99249.97
2022-08-21T06:46:31.425Z,99240.22
2022-08-21T06:49:02.003Z,99238.78
2022-08-21T06:51:32.113Z,99218.19
2022-08-21T06:54:04.906Z,99213.38
2022-08-21T06:56:39.339Z,99210.41
2022-08-21T06:59:12.964Z,99225.09
2022-08-21T07:01:43.168Z,99230.69
2022-08-21T07:04:13.344Z,99227.00
2022-08-21T07:06:43.479Z,99221.19
2022-08-21T07:09:13.775Z,99214.31
2022-08-21T07:11:48.275Z,99224.50
2022-08-21T07:14:20.193Z,99218.09
2022-08-21T07:16:51.861Z,99214.44
2022-08-21T07:19:22.645Z,99223.00
2022-08-21T07:21:52.855Z,99204.44
2022-08-21T07:24:23.107Z,99195.91
2022-08-21T07:26:55.862Z,99199.38
2022-08-21T07:29:26.091Z,99204.22
2022-08-21T07:31:56.284Z,99210.16
2022-08-21T07:34:26.437Z,99204.09
2022-08-21T07:36:56.648Z,99219.13
2022-08-21T07:39:28.691Z,99211.59
2022-08-21T07:42:05.038Z,99209.41
2022-08-21T07:44:38.088Z,99203.56
2022-08-21T07:47:08.378Z,99212.13
2022-08-21T07:49:38.710Z,99213.25
2022-08-21T07:52:09.097Z,99219.94
2022-08-21T07:54:39.272Z,99222.25
2022-08-21T07:57:14.719Z,99218.13
2022-08-21T07:59:48.964Z,99211.78
2022-08-21T08:02:26.281Z,99222.41
2022-08-21T08:04:56.689Z,99216.53
2022-08-21T08:07:26.875Z,99218.78
2022-08-21T08:09:57.092Z,99219.34
2022-08-21T08:12:30.690Z,99213.28
2022-08-21T08:15:00.753Z,99218.97
2022-08-21T08:17:33.328Z,99222.75
2022-08-21T08:20:04.623Z,99231.34
2022-08-21T08:22:34.905Z,99227.16
2022-08-21T08:25:09.300Z,99222.97
2022-08-21T08:27:43.208Z,99213.88
2022-08-21T08:30:16.702Z,99209.31
2022-08-21T08:32:46.863Z,99208.06
2022-08-21T08:35:23.628Z,99208.19
2022-08-21T08:37:55.608Z,99200.81
2022-08-21T08:40:35.296Z,99208.59
2022-08-21T08:43:09.092Z,99208.75
2022-08-21T08:45:43.554Z,99217.50
2022-08-21T08:48:18.544Z,99213.16
2022-08-21T08:50:53.420Z,99215.97
2022-08-21T08:53:28.008Z,99221.47
2022-08-21T08:55:58.160Z,99229.06
2022-08-21T08:58:34.074Z,99229.53
2022-08-21T09:01:04.551Z,99231.78
2022-08-21T09:03:35.162Z,99237.25
2022-08-21T09:06:20.120Z,99237.75
2022-08-21T09:08:57.870Z,99242.88
2022-08-21T09:11:37.023Z,99234.09
2022-08-21T09:14:20.843Z,99233.88
2022-08-21T09:16:55.531Z,99227.31
2022-08-21T09:19:40.370Z,99229.88
2022-08-21T09:22:19.354Z,99222.50
2022-08-21T09:25:02.306Z,99226.84
2022-08-21T09:27:34.492Z,99236.03
2022-08-21T09:30:10.850Z,99227.81
2022-08-21T09:32:42.981Z,99228.41
2022-08-21T09:35:15.783Z,99232.50
2022-08-21T09:37:52.855Z,99227.13
2022-08-21T09:40:33.458Z,99221.81
2022-08-21T09:43:06.041Z,99218.06
2022-08-21T09:45:39.866Z,99213.41
2022-08-21T09:48:14.957Z,99218.47
2022-08-21T09:50:46.533Z,99218.25
2022-08-21T09:53:22.117Z,99217.78
2022-08-21T09:56:08.596Z,99208.84
2022-08-21T09:58:40.870Z,99219.28
2022-08-21T10:01:18.417Z,99221.38
2022-08-21T10:03:49.058Z,99223.84
2022-08-21T10:06:27.783Z,99217.34
2022-08-21T10:09:12.407Z,99225.66
2022-08-21T10:11:56.491Z,99217.69
2022-08-21T10:14:45.916Z,99227.47
2022-08-21T10:17:27.210Z,99219.47
2022-08-21T10:20:05.410Z,99225.22
2022-08-21T10:22:47.226Z,99228.13
2022-08-21T10:25:23.220Z,99232.94
2022-08-21T10:28:10.167Z,99239.75
2022-08-21T10:30:53.646Z,99240.81
2022-08-21T10:33:42.441Z,99233.53
2022-08-21T10:36:17.613Z,99245.78
2022-08-21T10:39:26.782Z,99248.69
2022-08-21T10:42:21.844Z,99242.06
2022-08-21T10:45:13.508Z,99247.47
2022-08-21T10:47:52.907Z,99238.53
2022-08-21T10:50:35.552Z,99250.91
2022-08-21T10:53:20.146Z,99245.75
2022-08-21T10:55:59.739Z,99255.97
2022-08-21T10:58:33.181Z,99252.63
2022-08-21T11:01:12.053Z,99255.31
2022-08-21T11:03:46.433Z,99244.84
2022-08-21T11:06:24.069Z,99248.00
2022-08-21T11:09:00.843Z,99248.63
2022-08-21T11:11:36.183Z,99248.03
2022-08-21T11:14:15.576Z,99246.78
2022-08-21T11:16:49.754Z,99248.69
2022-08-21T11:19:29.117Z,99239.03
2022-08-21T11:22:14.849Z,99232.16
2022-08-21T11:24:52.552Z,99237.41
2022-08-21T11:27:27.936Z,99241.25
2022-08-21T11:30:01.378Z,99234.78
2022-08-21T11:32:57.456Z,99225.91
2022-08-21T11:35:38.625Z,99222.16
2022-08-21T11:38:31.271Z,99220.75
2022-08-21T11:41:27.015Z,99218.19
2022-08-21T11:44:05.868Z,99212.63
2022-08-21T11:46:44.675Z,99212.41
2022-08-21T11:49:44.222Z,99209.94
2022-08-21T11:52:22.792Z,99203.53
2022-08-21T11:55:01.791Z,99203.94
2022-08-21T11:57:38.018Z,99200.91
2022-08-21T12:00:15.284Z,99204.09
2022-08-21T12:02:49.454Z,99196.09
2022-08-21T12:05:30.806Z,99191.34
2022-08-21T12:08:07.614Z,99190.75
2022-08-21T12:10:43.884Z,99184.78
2022-08-21T12:13:40.365Z,99192.09
2022-08-21T12:16:17.554Z,99184.03
2022-08-21T12:18:48.113Z,99160.88
2022-08-21T12:21:25.693Z,99176.88
2022-08-21T12:24:07.294Z,99161.88
2022-08-21T12:26:53.315Z,99152.59
2022-08-21T12:29:31.887Z,99148.16
2022-08-21T12:32:06.419Z,99149.91
2022-08-21T12:34:41.054Z,99136.03
2022-08-21T12:37:26.774Z,99136.28
2022-08-21T12:39:59.022Z,99130.09
2022-08-21T12:42:38.697Z,99133.72
2022-08-21T12:45:20.994Z,99129.06
2022-08-21T12:47:55.215Z,99124.22
2022-08-21T12:50:37.069Z,99118.75
2022-08-21T12:53:18.315Z,99111.06
2022-08-21T12:55:51.082Z,99101.13
2022-08-21T12:58:26.712Z,99105.13
2022-08-21T13:01:00.427Z,99103.94
2022-08-21T13:03:32.405Z,99102.38
2022-08-21T13:06:03.117Z,99104.47
2022-08-21T13:08:37.596Z,99099.03
2022-08-21T13:11:15.076Z,99099.38
2022-08-21T13:13:53.135Z,99102.97
2022-08-21T13:16:32.270Z,99096.72
2022-08-21T13:19:06.524Z,99098.25
2022-08-21T13:21:42.720Z,99096.22
2022-08-21T13:24:41.268Z,99100.38
2022-08-21T13:27:21.881Z,99086.78
2022-08-21T13:30:05.057Z,99081.75
2022-08-21T13:32:38.894Z,99091.31
2022-08-21T13:35:15.681Z,99084.06
2022-08-21T13:37:47.227Z,99087.69
2022-08-21T13:40:21.599Z,99084.75
2022-08-21T13:42:52.691Z,99080.44
2022-08-21T13:45:28.539Z,99083.94
2022-08-21T13:47:59.203Z,99073.53
2022-08-21T13:50:33.912Z,99072.41
2022-08-21T13:53:06.753Z,99077.13
2022-08-21T13:55:43.991Z,99082.03
2022-08-21T13:58:15.417Z,99087.72
2022-08-21T14:00:54.120Z,99090.69
2022-08-21T14:03:33.879Z,99090.28
2022-08-21T14:06:04.339Z,99091.81
2022-08-21T14:08:38.417Z,99100.53
2022-08-21T14:11:09.883Z,99090.69
2022-08-21T14:13:44.160Z,99100.06
2022-08-21T14:16:24.246Z,99105.53
2022-08-21T14:19:01.708Z,99098.38
2022-08-21T14:21:38.094Z,99095.00
2022-08-21T14:24:12.440Z,99098.84
2022-08-21T14:26:50.450Z,99096.13
2022-08-21T14:29:23.305Z,99100.25
2022-08-21T14:31:58.579Z,99097.03
2022-08-21T14:34:35.810Z,99104.59
2022-08-21T14:37:06.336Z,99098.31
2022-08-21T14:39:36.746Z,99101.28
2022-08-21T14:42:07.737Z,99095.28
2022-08-21T14:44:37.887Z,99105.94
2022-08-21T14:47:11.769Z,99102.13
2022-08-21T14:49:42.398Z,99106.88
2022-08-21T14:52:12.893Z,99092.56
2022-08-21T14:54:43.036Z,99096.75
2022-08-21T14:57:15.424Z,99101.25
2022-08-21T14:59:45.617Z,99096.69
2022-08-21T15:02:18.352Z,99091.59
2022-08-21T15:04:48.451Z,99087.84
2022-08-21T15:07:18.697Z,99094.34
2022-08-21T15:09:48.853Z,99086.97
2022-08-21T15:12:19.380Z,99084.75
2022-08-21T15:14:49.848Z,99083.88
2022-08-21T15:17:22.929Z,99084.75
2022-08-21T15:19:53.160Z,99076.00
2022-08-21T15:22:28.023Z,99084.44
2022-08-21T15:24:58.716Z,99083.06
2022-08-21T15:27:28.908Z,99085.63
2022-08-21T15:29:59.583Z,99089.34
2022-08-21T15:32:32.681Z,99084.72
2022-08-21T15:35:03.366Z,99081.91
2022-08-21T15:37:33.721Z,99078.72
2022-08-21T15:40:04.274Z,99073.06
2022-08-21T15:42:35.105Z,99072.50
2022-08-21T15:45:06.391Z,99077.47
2022-08-21T15:47:41.213Z,99080.84
2022-08-21T15:50:13.841Z,99079.47
2022-08-21T15:52:44.106Z,99082.63
2022-08-21T15:55:15.410Z,99067.28
2022-08-21T15:57:57.331Z,99067.78
2022-08-21T16:00:29.320Z,99071.31
2022-08-21T16:03:03.182Z,99074.53
2022-08-21T16:05:33.442Z,99070.00
2022-08-21T16:08:03.728Z,99067.31
2022-08-21T16:10:33.949Z,99071.47
2022-08-21T16:13:07.975Z,99064.19
2022-08-21T16:15:38.311Z,99057.63
2022-08-21T16:18:11.203Z,99053.13
2022-08-21T16:20:41.395Z,99053.81
2022-08-21T16:23:11.695Z,99051.13
2022-08-21T16:25:43.415Z,99049.75
2022-08-21T16:28:17.590Z,99052.00
2022-08-21T16:30:50.655Z,99052.84
2022-08-21T16:33:28.617Z,99050.25
2022-08-21T16:36:00.398Z,99052.84
2022-08-21T16:38:32.699Z,99062.06
2022-08-21T16:41:05.917Z,99055.84
2022-08-21T16:43:37.377Z,99063.13
2022-08-21T16:46:08.345Z,99058.66
2022-08-21T16:48:41.321Z,99058.88
2022-08-21T16:51:11.445Z,99057.88
2022-08-21T16:53:41.694Z,99066.34
2022-08-21T16:56:13.410Z,99062.88
2022-08-21T16:58:47.659Z,99064.44
2022-08-21T17:01:20.793Z,99066.75
2022-08-21T17:03:56.195Z,99063.03
2022-08-21T17:06:28.870Z,99075.81
2022-08-21T17:08:59.976Z,99074.06
2022-08-21T17:11:38.068Z,99067.25
2022-08-21T17:14:11.249Z,99073.03
2022-08-21T17:16:42.747Z,99064.22
2022-08-21T17:19:16.290Z,99059.88
2022-08-21T17:21:46.594Z,99067.03
2022-08-21T17:24:17.757Z,99056.22
2022-08-21T17:26:48.514Z,99066.63
2022-08-21T17:29:19.075Z,99061.81
2022-08-21T17:31:51.633Z,99074.00
2022-08-21T17:34:31.084Z,99081.94
2022-08-21T17:37:01.971Z,99086.38
2022-08-21T17:39:33.356Z,99087.56
2022-08-21T17:42:11.320Z,99081.44
2022-08-21T17:44:44.474Z,99081.44
2022-08-21T17:47:18.033Z,99069.03
2022-08-21T17:49:51.127Z,99067.25
2022-08-21T17:52:21.343Z,99067.59
2022-08-21T17:54:51.525Z,99072.25
2022-08-21T17:57:28.713Z,99072.56
2022-08-21T18:00:01.690Z,99069.41
2022-08-21T18:02:35.987Z,99078.53
2022-08-21T18:05:14.775Z,99081.47
2022-08-21T18:07:45.346Z,99081.91
2022-08-21T18:10:15.786Z,99085.41
2022-08-21T18:12:47.479Z,99100.38
2022-08-21T18:15:20.044Z,99091.47
2022-08-21T18:17:52.633Z,99099.78
2022-08-21T18:20:28.877Z,99101.06
2022-08-21T18:23:00.056Z,99105.03
2022-08-21T18:25:30.565Z,99109.34
2022-08-21T18:28:02.491Z,99112.88
2022-08-21T18:30:34.604Z,99118.84
2022-08-21T18:33:25.748Z,99121.53
2022-08-21T18:36:18.351Z,99120.94
2022-08-21T18:39:35.040Z,99122.59
2022-08-21T18:42:25.575Z,99115.56
2022-08-21T18:45:17.662Z,99118.94
2022-08-21T18:48:12.137Z,99125.81
2022-08-21T18:50:45.700Z,99126.47
2022-08-21T18:53:27.576Z,99131.97
2022-08-21T18:58:51.053Z,99120.88
2022-08-21T19:01:21.131Z,99119.91
2022-08-21T19:03:51.390Z,99126.88
2022-08-21T19:06:21.517Z,99117.22
2022-08-21T19:08:56.002Z,99104.28
2022-08-21T19:11:27.958Z,99092.59
2022-08-21T19:14:01.606Z,99092.88
2022-08-21T19:16:34.018Z,99096.97
2022-08-21T19:19:05.239Z,99102.75
2022-08-21T19:21:35.518Z,99103.41
2022-08-21T19:24:17.376Z,99108.78
2022-08-21T19:27:00.407Z,99106.09
2022-08-21T19:29:35.103Z,99096.59
2022-08-21T19:32:08.037Z,99099.88
2022-08-21T19:34:41.045Z,99089.56
2022-08-21T19:37:16.371Z,99087.94
2022-08-21T19:39:50.725Z,99094.13
2022-08-21T19:42:22.282Z,99081.72
2022-08-21T19:44:59.147Z,99081.50
2022-08-21T19:47:31.548Z,99080.09
2022-08-21T19:50:05.108Z,99073.06
2022-08-21T19:52:51.419Z,99068.94
2022-08-21T19:55:25.142Z,99064.41
2022-08-21T19:57:56.102Z,99061.13
2022-08-21T20:00:28.897Z,99065.31
2022-08-21T20:02:59.155Z,99060.75
2022-08-21T20:05:39.545Z,99066.56
2022-08-21T20:08:11.665Z,99065.09
2022-08-21T20:10:58.096Z,99064.25
2022-08-21T20:13:32.559Z,99065.31
2022-08-21T20:16:03.479Z,99075.94
2022-08-21T20:18:36.623Z,99074.09
2022-08-21T20:21:08.194Z,99079.06
2022-08-21T20:23:48.776Z,99066.91
2022-08-21T20:26:22.422Z,99069.16
2022-08-21T20:28:53.355Z,99062.94
2022-08-21T20:31:25.875Z,99059.22
2022-08-21T20:33:58.089Z,99051.16
2022-08-21T20:36:28.724Z,99054.28
2022-08-21T20:38:58.819Z,99052.06
2022-08-21T20:41:31.582Z,99053.47
2022-08-21T20:44:04.433Z,99058.63
2022-08-21T20:46:35.499Z,99065.03
2022-08-21T20:49:08.303Z,99047.94
2022-08-21T20:51:43.257Z,99059.28
2022-08-21T20:54:23.763Z,99060.16
2022-08-21T20:57:01.127Z,99058.53
2022-08-21T20:59:44.393Z,99063.69
2022-08-21T21:02:27.135Z,99062.47
2022-08-21T21:05:05.371Z,99056.97
2022-08-21T21:07:41.260Z,99059.84
2022-08-21T21:10:18.051Z,99062.50
2022-08-21T21:12:54.554Z,99066.03
2022-08-21T21:15:30.983Z,99066.06
2022-08-21T21:18:08.135Z,99064.22
2022-08-21T21:20:48.797Z,99067.09
2022-08-21T21:23:25.547Z,99065.28
2022-08-21T21:26:04.032Z,99069.00
2022-08-21T21:28:48.703Z,99072.25
2022-08-21T21:31:21.455Z,99076.59
2022-08-21T21:33:52.007Z,99084.66
2022-08-21T21:36:31.807Z,99091.69
2022-08-21T21:39:12.259Z,99079.66
2022-08-21T21:44:56.776Z,99080.94
2022-08-21T21:47:42.458Z,99072.72
2022-08-21T21:50:24.357Z,99078.50
2022-08-21T21:53:12.307Z,99082.34
2022-08-21T21:56:11.790Z,99085.44
2022-08-21T21:59:13.881Z,99082.75
2022-08-21T22:01:52.895Z,99072.66
2022-08-21T22:04:31.255Z,99085.66
2022-08-21T22:07:08.890Z,99079.25
2022-08-21T22:09:47.055Z,99073.91
2022-08-21T22:12:32.957Z,99073.47
2022-08-21T22:15:03.101Z,99075.94
2022-08-21T22:17:47.894Z,99076.25
2022-08-21T22:20:23.112Z,99063.78
2022-08-21T22:22:58.290Z,99073.03
2022-08-21T22:25:32.803Z,99072.81
2022-08-21T22:28:07.239Z,99054.28
2022-08-21T22:30:45.358Z,99071.19
2022-08-21T22:33:21.572Z,99067.66
2022-08-21T22:35:54.229Z,99064.16
2022-08-21T22:38:34.896Z,99069.16
2022-08-21T22:41:17.587Z,99062.00
2022-08-21T22:43:56.185Z,99075.78
2022-08-21T22:46:36.697Z,99071.44
2022-08-21T22:49:15.729Z,99070.41
2022-08-21T22:51:49.454Z,99060.69
2022-08-21T22:54:26.674Z,99066.06
2022-08-21T22:57:03.075Z,99062.81
2022-08-21T22:59:35.995Z,99056.81
2022-08-21T23:02:12.420Z,99059.28
2022-08-21T23:04:53.883Z,99052.47
2022-08-21T23:07:49.775Z,99056.41
2022-08-21T23:10:28.538Z,99054.97
2022-08-21T23:13:06.227Z,99051.25
2022-08-21T23:18:50.493Z,99061.78
2022-08-21T23:21:31.361Z,99063.63
2022-08-21T23:24:24.581Z,99060.53
2022-08-21T23:27:08.125Z,99057.22
2022-08-21T23:29:49.600Z,99060.56
2022-08-21T23:32:47.014Z,99053.16
2022-08-21T23:35:23.908Z,99057.50
2022-08-21T23:38:09.435Z,99051.91
2022-08-21T23:40:50.989Z,99054.59
2022-08-21T23:43:38.792Z,99050.47
2022-08-21T23:46:34.552Z,99055.84
2022-08-21T23:49:24.310Z,99060.44
2022-08-21T23:52:05.793Z,99056.72
2022-08-21T23:54:49.070Z,99052.38
2022-08-21T23:57:33.302Z,99052.16
